Weather reports worldwide

Advertisment
Rodkallen, Sweden (2188): temperature & dewpoint: 20.03.2019 20:00:00 - 26.03.2019 20:00:00 (CET)Rodkallen, Sweden (2188): wind speed & gusts: 20.03.2019 20:00:00 - 26.03.2019 20:00:00 (CET)Rodkallen, Sweden (2188): wind direction: 20.03.2019 20:00:00 - 26.03.2019 20:00:00 (CET)Rodkallen, Sweden (2188): visibility: 20.03.2019 20:00:00 - 26.03.2019 20:00:00 (CET)Rodkallen, Sweden (2188): precipitation: 20.03.2019 20:00:00 - 26.03.2019 20:00:00 (CET)
Date & Time tt [°C] td [°C] ff [km/h] ff [kn] fx [km/h] fx [kn] dd vv [km] rr [mm]
26.03.2019 20:00:00 - - - - - - - - -
26.03.2019 19:00:00 -1,0 -4,0 14 8 17 9 SW 50 0,0
26.03.2019 18:00:00 -0,9 -4,4 14 8 16 9 SW 50 0,0
26.03.2019 17:00:00 0,0 -5,8 11 6 16 9 W 50 0,0
26.03.2019 16:00:00 -0,3 -6,5 8 5 19 10 WNW 49 0,0
26.03.2019 15:00:00 0,1 -7,4 14 8 - - WNW 49 0,0
26.03.2019 14:00:00 0,3 -7,9 13 7 19 11 NW 49 0,0
26.03.2019 13:00:00 -0,1 -6,9 16 9 21 11 WNW 46 0,0
26.03.2019 12:00:00 -0,5 -7,5 13 7 23 13 W 30 0,0
26.03.2019 11:00:00 -1,3 -8,5 16 9 24 13 NW 41 0,0
26.03.2019 10:00:00 -2,4 -9,3 15 8 30 16 NW 45 0,0
26.03.2019 09:00:00 -3,4 -9,2 20 11 - - NW 49 0,0
26.03.2019 08:00:00 -4,2 -9,2 23 12 38 21 NW 49 0,0
26.03.2019 07:00:00 -5,4 -9,3 23 12 36 20 NW 50 0,0
26.03.2019 06:00:00 -5,4 -9,0 23 12 34 19 NNW 50 0,0
26.03.2019 05:00:00 -6,3 -9,3 16 8 - - NW 50 0,0
26.03.2019 04:00:00 -6,1 -9,6 16 9 28 15 NNW 50 0,0
26.03.2019 03:00:00 -5,7 -8,9 19 10 25 14 NNW 50 0,0
26.03.2019 02:00:00 -4,6 -6,3 15 8 22 12 N 50 0,0
26.03.2019 01:00:00 -2,8 -3,8 7 4 - - N 50 0,0
26.03.2019 00:00:00 -2,0 -3,7 8 4 11 6 ENE 50 0,0
25.03.2019 23:00:00 -1,0 -3,2 7 4 12 7 ESE 50 0,0
25.03.2019 22:00:00 -2,3 -3,9 6 4 16 9 SE 50 0,0
25.03.2019 21:00:00 -1,6 -3,8 11 6 - - S 50 0,0
25.03.2019 20:00:00 -0,9 -3,1 14 8 18 10 SSE 50 0,0
25.03.2019 19:00:00 -1,5 -4,0 10 5 12 6 S 50 0,0
25.03.2019 18:00:00 -0,5 -5,7 0 0 12 6 N 50 0,0
25.03.2019 17:00:00 0,9 -6,0 3 2 17 9 W 50 0,0
25.03.2019 16:00:00 0,5 -7,3 8 5 20 11 NW 50 0,0
25.03.2019 15:00:00 0,8 -7,0 12 6 25 14 NW 46 0,0
25.03.2019 14:00:00 0,7 -6,8 14 8 - - NW 46 0,0
25.03.2019 13:00:00 0,8 -7,5 19 10 32 18 NNW 45 0,0
25.03.2019 12:00:00 0,3 -6,6 16 8 29 16 NW 47 0,0
25.03.2019 11:00:00 0,3 -5,9 15 8 39 21 NNW 43 0,0
25.03.2019 10:00:00 -0,5 -6,3 20 11 - - NNW 41 0,0
25.03.2019 09:00:00 -0,7 -6,1 28 15 44 24 N 44 0,0
25.03.2019 08:00:00 -1,2 -5,8 26 14 40 21 NNW 50 0,0
25.03.2019 07:00:00 -1,6 -5,8 24 13 - - NW 50 0,0
25.03.2019 06:00:00 -2,3 -6,5 26 14 38 20 NW 50 0,0
25.03.2019 05:00:00 -3,2 -7,2 20 11 33 18 NW 50 0,0
25.03.2019 04:00:00 -2,5 -7,0 24 13 - - WNW 50 0,0
25.03.2019 03:00:00 -2,1 -6,8 29 16 36 20 WNW 50 0,0
25.03.2019 02:00:00 -1,7 -6,6 27 14 36 19 W 50 0,0
25.03.2019 01:00:00 -1,3 -6,4 27 15 - - W 50 0,0
25.03.2019 00:00:00 -0,6 -6,4 30 16 43 23 WNW 50 0,0
24.03.2019 23:00:00 0,6 -5,4 32 17 40 22 W 50 0,0
24.03.2019 22:00:00 1,3 -5,0 28 15 38 21 WNW 50 0,0
24.03.2019 21:00:00 1,6 -4,7 18 10 42 23 NW 50 0,0
24.03.2019 20:00:00 1,1 -4,4 18 10 - - NW 50 0,0
24.03.2019 19:00:00 2,7 -4,3 34 19 44 24 WNW 50 0,0
24.03.2019 18:00:00 2,0 -2,9 24 13 39 21 W 50 0,0
24.03.2019 17:00:00 2,5 -3,2 29 16 43 23 W 50 0,0
24.03.2019 16:00:00 2,1 -3,4 34 18 54 29 W 50 0,0
24.03.2019 15:00:00 2,2 -4,1 35 19 - - W 48 0,0
24.03.2019 14:00:00 3,1 -4,8 41 22 57 31 W 50 0,0
24.03.2019 13:00:00 2,4 -4,6 35 19 59 32 W 49 0,0
24.03.2019 12:00:00 2,2 -4,5 34 19 66 36 W 50 0,0
24.03.2019 11:00:00 1,9 -5,3 44 24 73 39 W 42 0,0
24.03.2019 10:00:00 2,3 -5,7 54 29 76 41 W 45 0,0
24.03.2019 09:00:00 2,1 -5,1 55 30 - - W 50 0,0
24.03.2019 08:00:00 2,4 -5,0 60 33 79 42 W 43 0,0
24.03.2019 07:00:00 2,1 -4,4 51 28 69 38 W 50 0,0
24.03.2019 06:00:00 2,2 -3,1 42 23 - - W 50 0,0
24.03.2019 05:00:00 2,8 -2,7 50 27 72 39 WSW 50 0,0
24.03.2019 04:00:00 2,9 -2,6 49 26 67 36 WSW 50 0,0
24.03.2019 03:00:00 2,8 -2,7 53 28 - - WSW 50 0,0
24.03.2019 02:00:00 2,6 -2,3 51 28 64 35 WSW 50 0,0
24.03.2019 01:00:00 2,6 -2,5 48 26 61 33 SW 50 0,0
24.03.2019 00:00:00 2,1 -2,6 42 23 - - SW 50 0,0
23.03.2019 23:00:00 2,3 -3,2 43 23 66 35 SW 50 0,0
23.03.2019 22:00:00 2,1 -3,2 44 24 - - SSW 50 0,0
23.03.2019 21:00:00 2,0 -3,1 36 19 52 28 SSW 50 0,0
23.03.2019 20:00:00 1,4 -2,0 39 21 - - S 50 0,0
23.03.2019 19:00:00 1,7 -2,4 31 17 50 27 SSW 50 0,0
23.03.2019 18:00:00 2,3 -2,6 39 21 - - SSW 50 0,0
23.03.2019 17:00:00 2,9 -3,9 40 22 55 30 SW 50 0,0
23.03.2019 16:00:00 2,9 -3,2 30 16 - - SW 46 0,0
23.03.2019 15:00:00 2,1 -1,2 32 17 50 27 SSW 50 0,0
23.03.2019 14:00:00 1,8 -0,6 36 19 - - S 36 0,0
23.03.2019 13:00:00 1,3 0,1 37 20 56 30 SSW 38 0,0
23.03.2019 12:00:00 2,2 -0,4 41 22 50 27 SSW 48 0,0
23.03.2019 11:00:00 1,1 -0,2 33 18 46 25 S 39 0,0
23.03.2019 10:00:00 1,2 -0,3 36 19 - - S 36 0,0
23.03.2019 09:00:00 1,3 0,0 33 18 47 25 S 37 0,0
23.03.2019 08:00:00 1,0 0,0 31 17 50 27 S 22 0,2
23.03.2019 07:00:00 0,7 -0,2 34 18 52 28 SSW 11 1,2
23.03.2019 06:00:00 1,0 -0,6 38 20 53 28 S 13 0,0
23.03.2019 05:00:00 1,2 -0,7 40 22 56 31 S 42 0,0
23.03.2019 04:00:00 1,0 -1,1 41 22 63 34 S 35 0,0
23.03.2019 03:00:00 1,1 -1,3 48 26 67 36 S 34 0,0
23.03.2019 02:00:00 1,2 -1,2 50 27 - - S 47 0,0
23.03.2019 01:00:00 1,3 -0,6 56 30 70 38 S 50 0,0
23.03.2019 00:00:00 0,6 -0,4 50 27 72 39 S 3,7 0,0
22.03.2019 23:00:00 0,0 -1,4 56 30 - - S 1,0 0,0
22.03.2019 22:00:00 0,2 -2,0 58 32 74 40 S 1,7 0,0
22.03.2019 21:00:00 0,8 -2,6 49 26 63 34 S 44 0,0
22.03.2019 20:00:00 0,0 -2,5 47 25 - - SSE 34 0,0
22.03.2019 19:00:00 0,6 -3,0 52 28 64 34 S 40 0,0
22.03.2019 18:00:00 0,4 -2,8 39 21 49 26 SSE 50 0,0
22.03.2019 17:00:00 0,1 -2,8 31 17 38 20 SSE 43 0,0
22.03.2019 16:00:00 0,1 -2,9 28 15 34 18 SSE 33 0,0
22.03.2019 15:00:00 0,3 -3,1 20 11 24 13 SSE 34 0,0
22.03.2019 14:00:00 0,4 -3,0 14 8 22 12 S 29 0,0
22.03.2019 13:00:00 0,8 -3,3 16 9 22 12 SSW 29 0,0
22.03.2019 12:00:00 1,1 -4,0 18 10 24 13 WSW 27 0,0
22.03.2019 11:00:00 0,6 -4,2 18 10 29 16 WSW 25 0,0
22.03.2019 10:00:00 -0,1 -4,9 18 10 34 19 W 38 0,0
22.03.2019 09:00:00 -0,8 -5,6 24 13 - - W 27 0,0
22.03.2019 08:00:00 -1,5 -6,3 28 15 36 20 W 26 0,0
22.03.2019 07:00:00 -1,4 -6,2 28 15 36 19 W 24 0,0
22.03.2019 06:00:00 -2,1 -6,8 26 14 39 21 W 30 0,0
22.03.2019 05:00:00 -2,1 -6,5 26 14 42 23 WNW 38 0,0
22.03.2019 04:00:00 -2,2 -6,9 31 17 51 28 WNW 50 0,0
22.03.2019 03:00:00 -1,1 -6,3 36 20 53 28 WNW 50 0,0
22.03.2019 02:00:00 -0,6 -6,4 44 24 54 29 WNW 50 0,0
22.03.2019 01:00:00 -0,6 -6,4 43 23 55 30 W 50 0,0
22.03.2019 00:00:00 0,0 -6,4 46 25 - - WNW 50 0,0
21.03.2019 23:00:00 0,4 -6,0 47 26 73 39 WNW 43 0,0
21.03.2019 22:00:00 0,7 -6,0 51 27 75 41 W 50 0,0
21.03.2019 21:00:00 0,8 -5,7 52 28 85 46 W 50 0,0
21.03.2019 20:00:00 1,8 -5,6 58 31 - - W 50 0,0
21.03.2019 19:00:00 2,1 -5,3 59 32 88 47 W 11 0,0
21.03.2019 18:00:00 3,0 -4,9 51 28 77 41 W 50 0,0
21.03.2019 17:00:00 3,8 -3,7 52 28 62 34 W 45 0,0
21.03.2019 16:00:00 3,1 0,0 42 23 54 29 WSW 50 0,0
21.03.2019 15:00:00 0,9 -1,0 38 20 - - S 49 0,0
21.03.2019 14:00:00 1,1 -1,1 43 23 54 29 S 36 0,0
21.03.2019 13:00:00 0,9 -0,9 32 17 39 21 S 23 0,0
21.03.2019 12:00:00 0,2 -1,2 29 16 35 19 SSE 31 0,0
21.03.2019 11:00:00 -0,2 -1,8 23 13 30 16 S 28 0,0
21.03.2019 10:00:00 -0,9 -2,5 23 13 29 16 S 32 0,0
21.03.2019 09:00:00 -0,8 -2,5 17 9 24 13 SSW 27 0,0
21.03.2019 08:00:00 -1,3 -3,5 18 10 25 14 SSW 27 0,0
21.03.2019 07:00:00 -1,9 -3,9 15 8 - - SW 37 0,0
21.03.2019 06:00:00 -1,5 -3,5 25 13 30 16 SW 47 0,0
21.03.2019 05:00:00 -2,0 -3,7 17 9 27 15 SSW 50 0,0
21.03.2019 04:00:00 -1,7 -3,3 16 9 24 13 SW 50 0,0
21.03.2019 03:00:00 -2,1 -3,4 17 9 21 11 SW 50 0,0
21.03.2019 02:00:00 -2,3 -3,7 16 8 - - SW 50 0,0
21.03.2019 01:00:00 -2,6 -3,4 12 7 21 11 WSW 49 0,0
21.03.2019 00:00:00 -2,8 -3,3 16 8 19 10 WSW 50 0,0
20.03.2019 23:00:00 -4,7 -5,2 10 6 18 10 S 32 0,0
20.03.2019 22:00:00 -4,2 -4,7 16 9 17 9 SSE 50 0,0
20.03.2019 21:00:00 -3,4 -3,8 10 5 14 7 S 5 0,0
20.03.2019 20:00:00 -3,9 -4,3 7 4 9 5 SSW 0,3 0,0

tt = temperature
td = dewpoint
ff = wind speed
fx = gusts
dd = wind direction
vv = visibility
rr = precipitation

Next stations